createdAt,value
2023-04-20T00:02:24.348Z,3.83
2023-04-20T00:04:52.971Z,6.23
2023-04-20T00:07:21.678Z,7.67
2023-04-20T00:09:50.084Z,4.43
2023-04-20T00:12:18.708Z,4.90
2023-04-20T00:14:47.076Z,2.90
2023-04-20T00:17:15.374Z,3.83
2023-04-20T00:19:45.192Z,3.73
2023-04-20T00:22:13.606Z,5.23
2023-04-20T00:24:42.073Z,4.63
2023-04-20T00:27:10.510Z,4.20
2023-04-20T00:29:38.823Z,3.77
2023-04-20T00:32:07.536Z,5.20
2023-04-20T00:34:36.020Z,6.87
2023-04-20T00:37:06.342Z,3.87
2023-04-20T00:39:34.896Z,7.67
2023-04-20T00:42:07.186Z,4.33
2023-04-20T00:44:35.755Z,6.37
2023-04-20T00:47:04.183Z,4.90
2023-04-20T00:49:32.523Z,4.60
2023-04-20T00:52:01.174Z,4.43
2023-04-20T00:54:31.630Z,3.53
2023-04-20T00:57:00.142Z,3.47
2023-04-20T00:59:28.544Z,6.03
2023-04-20T01:01:57.043Z,2.83
2023-04-20T01:04:25.685Z,5.53
2023-04-20T01:06:54.240Z,5.97
2023-04-20T01:09:22.855Z,6.53
2023-04-20T01:11:52.644Z,5.30
2023-04-20T01:14:21.076Z,5.67
2023-04-20T01:16:49.777Z,4.07
2023-04-20T01:19:18.534Z,5.80
2023-04-20T01:21:47.303Z,4.30
2023-04-20T01:24:17.231Z,3.53
2023-04-20T01:26:45.645Z,3.97
2023-04-20T01:29:14.060Z,5.00
2023-04-20T01:31:42.618Z,2.97
2023-04-20T01:34:10.952Z,5.00
2023-04-20T01:36:39.318Z,4.07
2023-04-20T01:39:07.689Z,2.67
2023-04-20T01:41:37.473Z,3.63
2023-04-20T01:44:06.045Z,5.23
2023-04-20T01:46:34.514Z,2.83
2023-04-20T01:49:02.997Z,6.70
2023-04-20T01:51:33.189Z,5.83
2023-04-20T01:54:01.682Z,4.83
2023-04-20T01:56:30.310Z,2.93
2023-04-20T01:59:00.173Z,3.60
2023-04-20T02:01:28.835Z,5.63
2023-04-20T02:03:57.531Z,4.00
2023-04-20T02:06:25.987Z,4.67
2023-04-20T02:08:54.437Z,3.37
2023-04-20T02:11:23.281Z,3.77
2023-04-20T02:13:51.748Z,6.17
2023-04-20T02:16:21.805Z,4.67
2023-04-20T02:18:50.636Z,3.90
2023-04-20T02:21:18.980Z,5.10
2023-04-20T02:23:47.412Z,6.80
2023-04-20T02:26:16.885Z,5.03
2023-04-20T02:28:45.371Z,4.13
2023-04-20T02:31:13.828Z,4.93
2023-04-20T02:33:44.183Z,4.50
2023-04-20T02:36:12.625Z,6.70
2023-04-20T02:38:41.061Z,5.00
2023-04-20T02:41:09.593Z,5.13
2023-04-20T02:43:37.966Z,6.03
2023-04-20T02:46:06.443Z,5.57
2023-04-20T02:48:34.827Z,4.40
2023-04-20T02:51:04.551Z,7.20
2023-04-20T02:53:32.846Z,5.17
2023-04-20T02:56:01.279Z,5.83
2023-04-20T02:58:29.661Z,6.53
2023-04-20T03:01:01.295Z,5.07
2023-04-20T03:03:30.343Z,7.53
2023-04-20T03:05:58.787Z,5.87
2023-04-20T03:08:28.565Z,5.57
2023-04-20T03:10:56.919Z,6.83
2023-04-20T03:13:25.321Z,9.47
2023-04-20T03:15:53.913Z,5.60
2023-04-20T03:18:22.283Z,6.47
2023-04-20T03:20:50.659Z,6.23
2023-04-20T03:23:18.991Z,6.07
2023-04-20T03:25:49.080Z,10.60
2023-04-20T03:28:17.442Z,4.87
2023-04-20T03:30:45.894Z,6.73
2023-04-20T03:33:14.332Z,6.13
2023-04-20T03:35:43.253Z,5.80
2023-04-20T03:38:11.629Z,8.00
2023-04-20T03:40:39.975Z,6.07
2023-04-20T03:43:11.283Z,4.77
2023-04-20T03:45:39.736Z,7.93
2023-04-20T03:48:08.167Z,5.80
2023-04-20T03:50:36.517Z,7.90
2023-04-20T03:53:04.873Z,5.23
2023-04-20T03:55:33.378Z,8.00
2023-04-20T03:58:01.708Z,4.90
2023-04-20T04:00:31.440Z,8.03
2023-04-20T04:02:59.936Z,5.93
2023-04-20T04:05:28.568Z,5.70
2023-04-20T04:07:57.358Z,5.53
2023-04-20T04:10:25.743Z,5.10
2023-04-20T04:12:54.164Z,8.83
2023-04-20T04:15:22.605Z,7.57
2023-04-20T04:17:52.469Z,4.57
2023-04-20T04:20:20.886Z,3.90
2023-04-20T04:22:49.373Z,5.47
2023-04-20T04:25:17.762Z,5.43
2023-04-20T04:27:46.540Z,4.87
2023-04-20T04:30:15.360Z,5.67
2023-04-20T04:32:44.834Z,5.93
2023-04-20T04:35:14.960Z,5.33
2023-04-20T04:37:43.438Z,6.20
2023-04-20T04:40:12.011Z,5.03
2023-04-20T04:42:40.482Z,5.20
2023-04-20T04:45:10.390Z,7.13
2023-04-20T04:47:40.610Z,2.87
2023-04-20T04:50:10.545Z,5.60
2023-04-20T04:52:40.399Z,4.40
2023-04-20T04:55:09.977Z,3.20
2023-04-20T04:57:39.330Z,6.97
2023-04-20T05:00:09.691Z,7.30
2023-04-20T05:02:38.201Z,7.17
2023-04-20T05:05:09.750Z,4.20
2023-04-20T05:07:40.274Z,6.93
2023-04-20T05:10:09.361Z,4.37
2023-04-20T05:12:37.827Z,4.27
2023-04-20T05:15:06.501Z,7.87
2023-04-20T05:17:35.140Z,5.40
2023-04-20T05:20:06.266Z,4.40
2023-04-20T05:22:34.805Z,5.10
2023-04-20T05:25:04.773Z,8.00
2023-04-20T05:27:33.264Z,5.50
2023-04-20T05:30:16.685Z,3.43
2023-04-20T05:32:50.660Z,3.37
2023-04-20T05:35:21.588Z,6.43
2023-04-20T05:37:50.310Z,6.97
2023-04-20T05:40:20.104Z,9.10
2023-04-20T05:42:48.503Z,10.00
2023-04-20T05:45:16.940Z,6.03
2023-04-20T05:47:54.011Z,4.50
2023-04-20T05:50:22.913Z,7.97
2023-04-20T05:52:51.734Z,8.20
2023-04-20T05:55:22.755Z,5.93
2023-04-20T05:57:52.045Z,4.17
2023-04-20T06:00:21.497Z,8.87
2023-04-20T06:02:51.186Z,5.90
2023-04-20T06:05:21.033Z,4.57
2023-04-20T06:07:49.528Z,7.60
2023-04-20T06:10:17.975Z,5.23
2023-04-20T06:12:48.016Z,3.67
2023-04-20T06:15:16.419Z,6.97
2023-04-20T06:17:44.894Z,5.20
2023-04-20T06:20:13.468Z,7.57
2023-04-20T06:22:44.527Z,10.87
2023-04-20T06:25:13.485Z,4.57
2023-04-20T06:27:41.949Z,5.53
2023-04-20T06:30:12.198Z,5.53
2023-04-20T06:32:40.629Z,8.70
2023-04-20T06:35:09.584Z,5.10
2023-04-20T06:37:38.014Z,5.13
2023-04-20T06:40:08.536Z,6.73
2023-04-20T06:42:37.529Z,6.00
2023-04-20T06:45:06.644Z,4.97
2023-04-20T06:47:36.809Z,6.17
2023-04-20T06:50:07.385Z,5.73
2023-04-20T06:52:36.749Z,6.27
2023-04-20T06:55:05.299Z,5.93
2023-04-20T06:57:33.692Z,8.33
2023-04-20T07:00:02.078Z,6.77
2023-04-20T07:02:30.664Z,8.37
2023-04-20T07:05:03.376Z,7.00
2023-04-20T07:07:31.849Z,9.00
2023-04-20T07:10:00.556Z,4.77
2023-04-20T07:12:36.779Z,7.50
2023-04-20T07:15:05.545Z,5.63
2023-04-20T07:17:34.017Z,7.47
2023-04-20T07:20:08.383Z,11.97
2023-04-20T07:22:37.340Z,4.53
2023-04-20T07:25:07.437Z,6.20
2023-04-20T07:27:36.660Z,9.83
2023-04-20T07:30:06.413Z,8.70
2023-04-20T07:32:41.122Z,5.60
2023-04-20T07:35:14.914Z,6.73
2023-04-20T07:37:43.368Z,5.03
2023-04-20T07:40:12.201Z,5.13
2023-04-20T07:42:40.617Z,5.93
2023-04-20T07:45:09.488Z,4.37
2023-04-20T07:47:37.924Z,6.83
2023-04-20T07:50:06.752Z,4.67
2023-04-20T07:52:36.884Z,8.37
2023-04-20T07:55:05.332Z,5.50
2023-04-20T07:57:39.584Z,7.43
2023-04-20T08:00:09.836Z,6.40
2023-04-20T08:02:38.371Z,5.47
2023-04-20T08:05:08.084Z,5.60
2023-04-20T08:07:38.104Z,10.23
2023-04-20T08:10:06.957Z,7.70
2023-04-20T08:12:35.731Z,5.60
2023-04-20T08:15:06.929Z,5.80
2023-04-20T08:17:35.463Z,6.57
2023-04-20T08:20:05.946Z,6.80
2023-04-20T08:22:34.665Z,7.90
2023-04-20T08:25:04.475Z,7.33
2023-04-20T08:27:32.868Z,5.57
2023-04-20T08:30:01.886Z,7.63
2023-04-20T08:32:30.324Z,4.37
2023-04-20T08:35:01.644Z,6.50
2023-04-20T08:37:32.068Z,11.07
2023-04-20T08:40:06.129Z,6.57
2023-04-20T08:42:34.460Z,7.50
2023-04-20T08:45:02.832Z,6.33
2023-04-20T08:47:31.429Z,6.47
2023-04-20T08:49:59.921Z,10.10
2023-04-20T08:52:29.370Z,8.00
2023-04-20T08:54:58.088Z,8.00
2023-04-20T08:57:27.975Z,5.90
2023-04-20T08:59:56.572Z,8.03
2023-04-20T09:02:25.134Z,7.23
2023-04-20T09:05:02.447Z,8.83
2023-04-20T09:07:30.897Z,5.77
2023-04-20T09:09:59.600Z,7.23
2023-04-20T09:12:29.559Z,6.27
2023-04-20T09:14:57.953Z,6.20
2023-04-20T09:17:33.297Z,6.33
2023-04-20T09:20:01.811Z,7.00
2023-04-20T09:22:33.273Z,8.10
2023-04-20T09:25:01.690Z,8.40
2023-04-20T09:27:31.716Z,8.43
2023-04-20T09:30:00.336Z,8.80
2023-04-20T09:32:29.456Z,8.07
2023-04-20T09:34:58.070Z,11.87
2023-04-20T09:37:26.684Z,7.40
2023-04-20T09:39:55.272Z,6.97
2023-04-20T09:42:23.837Z,6.67
2023-04-20T09:44:53.621Z,7.63
2023-04-20T09:47:22.014Z,7.80
2023-04-20T09:49:50.525Z,7.77
2023-04-20T09:52:19.191Z,7.80
2023-04-20T09:54:47.598Z,8.30
2023-04-20T09:57:16.008Z,6.07
2023-04-20T09:59:44.842Z,7.50
2023-04-20T10:02:14.761Z,8.00
2023-04-20T10:04:53.404Z,6.53
2023-04-20T10:07:25.376Z,8.83
2023-04-20T10:10:05.012Z,7.87
2023-04-20T10:12:33.691Z,7.90
2023-04-20T10:15:02.092Z,8.37
2023-04-20T10:17:35.084Z,8.03
2023-04-20T10:20:04.679Z,5.37
2023-04-20T10:22:34.008Z,10.60
2023-04-20T10:25:02.615Z,7.17
2023-04-20T10:27:32.572Z,6.70
2023-04-20T10:30:10.898Z,6.50
2023-04-20T10:32:40.665Z,5.57
2023-04-20T10:35:09.762Z,6.63
2023-04-20T10:37:38.181Z,5.63
2023-04-20T10:40:08.190Z,8.53
2023-04-20T10:42:43.497Z,6.03
2023-04-20T10:45:12.165Z,7.97
2023-04-20T10:47:42.056Z,6.67
2023-04-20T10:50:11.120Z,7.80
2023-04-20T10:52:42.002Z,7.57
2023-04-20T10:55:19.992Z,6.13
2023-04-20T10:57:48.533Z,6.83
2023-04-20T11:00:18.162Z,6.60
2023-04-20T11:02:54.272Z,5.77
2023-04-20T11:05:23.127Z,6.53
2023-04-20T11:07:54.788Z,8.40
2023-04-20T11:10:23.438Z,9.23
2023-04-20T11:12:55.772Z,7.77
2023-04-20T11:15:33.134Z,7.13
2023-04-20T11:18:09.487Z,7.90
2023-04-20T11:20:38.095Z,5.67
2023-04-20T11:23:06.781Z,6.27
2023-04-20T11:25:35.326Z,5.03
2023-04-20T11:28:08.557Z,5.57
2023-04-20T11:30:40.447Z,7.07
2023-04-20T11:33:10.668Z,7.63
2023-04-20T11:35:39.251Z,6.47
2023-04-20T11:38:10.536Z,6.03
2023-04-20T11:40:38.872Z,6.67
2023-04-20T11:43:07.351Z,8.80
2023-04-20T11:45:36.569Z,7.57
2023-04-20T11:48:05.556Z,6.40
2023-04-20T11:50:39.799Z,7.57
2023-04-20T11:53:14.678Z,7.30
2023-04-20T11:55:43.108Z,8.20
2023-04-20T11:58:11.679Z,8.87
2023-04-20T12:00:40.032Z,8.97
2023-04-20T12:03:08.741Z,6.97
2023-04-20T12:05:38.656Z,6.53
2023-04-20T12:08:08.336Z,7.23
2023-04-20T12:10:36.851Z,7.20
2023-04-20T12:13:05.340Z,8.20
2023-04-20T12:15:33.843Z,6.20
2023-04-20T12:18:02.310Z,6.90
2023-04-20T12:20:30.916Z,9.60
2023-04-20T12:23:02.101Z,8.27
2023-04-20T12:25:30.470Z,9.83
2023-04-20T12:27:58.928Z,8.23
2023-04-20T12:30:30.215Z,6.90
2023-04-20T12:32:59.767Z,6.93
2023-04-20T12:35:28.137Z,6.57
2023-04-20T12:37:56.782Z,6.77
2023-04-20T12:40:26.734Z,5.70
2023-04-20T12:42:55.132Z,8.40
2023-04-20T12:45:23.730Z,8.33
2023-04-20T12:47:54.693Z,7.20
2023-04-20T12:50:24.465Z,6.23
2023-04-20T12:52:53.170Z,7.73
2023-04-20T12:55:21.618Z,5.90
2023-04-20T12:57:51.385Z,6.73
2023-04-20T13:00:21.075Z,5.50
2023-04-20T13:02:49.755Z,6.43
2023-04-20T13:05:18.738Z,6.17
2023-04-20T13:07:47.334Z,6.80
2023-04-20T13:10:15.766Z,6.77
2023-04-20T13:12:44.097Z,7.60
2023-04-20T13:15:14.654Z,7.80
2023-04-20T13:17:43.684Z,7.97
2023-04-20T13:20:12.750Z,7.37
2023-04-20T13:22:54.544Z,9.13
2023-04-20T13:25:25.950Z,8.00
2023-04-20T13:27:58.088Z,9.07
2023-04-20T13:30:28.289Z,7.27
2023-04-20T13:32:56.783Z,7.43
2023-04-20T13:35:25.409Z,7.57
2023-04-20T13:37:53.988Z,8.37
2023-04-20T13:40:22.369Z,8.87
2023-04-20T13:42:50.866Z,9.53
2023-04-20T13:45:19.324Z,8.60
2023-04-20T13:47:49.166Z,9.20
2023-04-20T13:50:17.626Z,7.67
2023-04-20T13:52:46.184Z,8.80
2023-04-20T13:55:14.764Z,7.80
2023-04-20T13:57:43.164Z,8.93
2023-04-20T14:00:11.879Z,11.37
2023-04-20T14:02:40.368Z,8.13
2023-04-20T14:05:10.676Z,7.37
2023-04-20T14:07:39.238Z,7.50
2023-04-20T14:10:08.422Z,9.20
2023-04-20T14:12:36.828Z,8.60
2023-04-20T14:15:05.654Z,8.20
2023-04-20T14:17:34.234Z,8.13
2023-04-20T14:20:03.771Z,9.27
2023-04-20T14:22:36.173Z,7.97
2023-04-20T14:25:05.085Z,7.30
2023-04-20T14:27:34.058Z,8.17
2023-04-20T14:30:02.374Z,8.20
2023-04-20T14:32:31.842Z,9.03
2023-04-20T14:35:01.405Z,9.23
2023-04-20T14:37:32.424Z,7.47
2023-04-20T14:40:02.398Z,8.77
2023-04-20T14:42:30.837Z,8.73
2023-04-20T14:44:59.250Z,8.77
2023-04-20T14:47:27.677Z,7.57
2023-04-20T14:49:56.638Z,6.03
2023-04-20T14:52:25.277Z,7.20
2023-04-20T14:54:58.513Z,9.17
2023-04-20T14:57:28.287Z,7.67
2023-04-20T14:59:56.713Z,7.57
2023-04-20T15:02:28.259Z,7.13
2023-04-20T15:04:59.464Z,10.03
2023-04-20T15:07:28.457Z,7.73
2023-04-20T15:09:56.852Z,7.27
2023-04-20T15:12:32.802Z,5.63
2023-04-20T15:15:02.300Z,7.80
2023-04-20T15:17:30.891Z,8.23
2023-04-20T15:19:59.448Z,7.20
2023-04-20T15:22:27.784Z,7.30
2023-04-20T15:24:56.147Z,8.67
2023-04-20T15:27:25.024Z,8.73
2023-04-20T15:29:55.016Z,7.70
2023-04-20T15:32:23.448Z,8.57
2023-04-20T15:34:52.000Z,9.47
2023-04-20T15:37:20.525Z,7.60
2023-04-20T15:39:49.059Z,7.63
2023-04-20T15:42:17.486Z,7.67
2023-04-20T15:44:46.268Z,7.20
2023-04-20T15:47:16.229Z,9.60
2023-04-20T15:49:44.622Z,7.90
2023-04-20T15:52:13.292Z,8.53
2023-04-20T15:54:41.806Z,8.80
2023-04-20T15:57:12.162Z,6.37
2023-04-20T15:59:40.557Z,6.90
2023-04-20T16:02:09.017Z,7.37
2023-04-20T16:04:38.935Z,10.77
2023-04-20T16:07:08.883Z,6.60
2023-04-20T16:09:37.268Z,6.83
2023-04-20T16:12:05.866Z,6.97
2023-04-20T16:14:34.446Z,6.67
2023-04-20T16:17:03.177Z,6.63
2023-04-20T16:19:31.823Z,7.07
2023-04-20T16:22:01.617Z,8.00
2023-04-20T16:24:29.974Z,7.83
2023-04-20T16:27:01.141Z,7.23
2023-04-20T16:29:29.525Z,7.13
2023-04-20T16:31:58.039Z,6.90
2023-04-20T16:34:26.487Z,8.23
2023-04-20T16:36:54.858Z,6.73
2023-04-20T16:39:26.151Z,6.70
2023-04-20T16:41:59.695Z,6.80
2023-04-20T16:44:28.511Z,7.83
2023-04-20T16:46:57.021Z,12.37
2023-04-20T16:49:26.076Z,8.00
2023-04-20T16:51:54.434Z,8.47
2023-04-20T16:54:22.900Z,8.67
2023-04-20T16:56:52.762Z,8.33
2023-04-20T16:59:21.539Z,8.03
2023-04-20T17:01:50.465Z,7.23
2023-04-20T17:04:19.377Z,10.43
2023-04-20T17:06:47.894Z,7.50
2023-04-20T17:09:16.321Z,7.63
2023-04-20T17:11:48.342Z,8.87
2023-04-20T17:14:18.682Z,8.33
2023-04-20T17:16:47.728Z,7.70
2023-04-20T17:19:16.637Z,6.97
2023-04-20T17:21:45.746Z,6.67
2023-04-20T17:24:17.186Z,9.80
2023-04-20T17:26:46.446Z,8.50
2023-04-20T17:29:15.237Z,8.20
2023-04-20T17:31:45.774Z,12.33
2023-04-20T17:34:14.263Z,10.10
2023-04-20T17:36:42.770Z,12.23
2023-04-20T17:39:11.514Z,10.70
2023-04-20T17:41:40.047Z,9.07
2023-04-20T17:44:10.948Z,9.13
2023-04-20T17:46:40.658Z,9.57
2023-04-20T17:49:10.483Z,8.50
2023-04-20T17:51:39.323Z,8.33
2023-04-20T17:54:07.924Z,10.07
2023-04-20T17:56:36.424Z,8.60
2023-04-20T17:59:05.513Z,8.23
2023-04-20T18:01:34.803Z,8.27
2023-04-20T18:04:03.565Z,7.43
2023-04-20T18:06:34.028Z,8.17
2023-04-20T18:09:05.333Z,7.97
2023-04-20T18:11:33.813Z,7.60
2023-04-20T18:14:02.248Z,8.60
2023-04-20T18:16:30.751Z,7.90
2023-04-20T18:18:59.268Z,7.60
2023-04-20T18:21:30.087Z,8.07
2023-04-20T18:23:59.870Z,8.53
2023-04-20T18:26:28.635Z,9.03
2023-04-20T18:28:56.995Z,7.97
2023-04-20T18:31:25.572Z,9.43
2023-04-20T18:33:54.188Z,8.43
2023-04-20T18:36:22.789Z,8.17
2023-04-20T18:38:52.070Z,7.87
2023-04-20T18:41:23.108Z,8.50
2023-04-20T18:43:51.505Z,7.83
2023-04-20T18:46:19.913Z,8.87
2023-04-20T18:48:48.340Z,9.17
2023-04-20T18:51:16.745Z,8.57
2023-04-20T18:53:45.344Z,8.80
2023-04-20T18:56:14.049Z,7.73
2023-04-20T18:58:43.859Z,7.30
2023-04-20T19:01:12.652Z,9.07
2023-04-20T19:03:45.553Z,9.00
2023-04-20T19:06:16.519Z,9.20
2023-04-20T19:08:45.266Z,7.87
2023-04-20T19:11:16.832Z,10.80
2023-04-20T19:13:47.394Z,14.70
2023-04-20T19:16:15.863Z,11.33
2023-04-20T19:18:44.260Z,11.30
2023-04-20T19:21:13.177Z,10.37
2023-04-20T19:23:42.151Z,8.77
2023-04-20T19:26:10.796Z,8.73
2023-04-20T19:28:40.299Z,9.03
2023-04-20T19:31:11.353Z,9.27
2023-04-20T19:33:42.567Z,10.03
2023-04-20T19:36:11.478Z,11.00
2023-04-20T19:38:43.353Z,10.73
2023-04-20T19:41:11.885Z,10.20
2023-04-20T19:43:40.426Z,9.97
2023-04-20T19:46:10.892Z,9.07
2023-04-20T19:48:39.589Z,10.77
2023-04-20T19:51:07.926Z,10.97
2023-04-20T19:53:36.858Z,9.80
2023-04-20T19:56:06.506Z,9.43
2023-04-20T19:58:35.156Z,9.10
2023-04-20T20:01:03.557Z,8.57
2023-04-20T20:03:33.617Z,9.73
2023-04-20T20:06:02.045Z,8.33
2023-04-20T20:08:31.208Z,10.20
2023-04-20T20:10:59.546Z,9.57
2023-04-20T20:13:27.903Z,9.80
2023-04-20T20:15:56.358Z,9.47
2023-04-20T20:18:24.701Z,9.53
2023-04-20T20:20:55.727Z,9.97
2023-04-20T20:23:24.387Z,9.23
2023-04-20T20:25:52.828Z,9.17
2023-04-20T20:28:21.283Z,9.10
2023-04-20T20:30:49.583Z,8.97
2023-04-20T20:33:17.818Z,10.80
2023-04-20T20:35:46.141Z,9.93
2023-04-20T20:38:15.903Z,11.97
2023-04-20T20:40:51.648Z,11.00
2023-04-20T20:43:27.736Z,10.10
2023-04-20T20:46:08.806Z,9.70
2023-04-20T20:48:37.292Z,10.63
2023-04-20T20:51:05.803Z,10.77
2023-04-20T20:53:37.138Z,10.47
2023-04-20T20:56:08.659Z,12.33
2023-04-20T20:58:38.318Z,12.37
2023-04-20T21:01:09.953Z,10.47
2023-04-20T21:03:38.707Z,10.43
2023-04-20T21:06:07.457Z,11.87
2023-04-20T21:08:37.280Z,12.60
2023-04-20T21:11:05.677Z,10.47
2023-04-20T21:13:44.295Z,9.60
2023-04-20T21:16:15.939Z,12.17
2023-04-20T21:18:44.334Z,9.40
2023-04-20T21:21:13.480Z,9.63
2023-04-20T21:23:43.189Z,11.33
2023-04-20T21:26:11.542Z,10.80
2023-04-20T21:28:39.934Z,10.60
2023-04-20T21:31:12.772Z,10.53
2023-04-20T21:33:44.150Z,10.13
2023-04-20T21:36:14.981Z,10.70
2023-04-20T21:38:49.722Z,9.50
2023-04-20T21:41:18.143Z,10.00
2023-04-20T21:43:46.850Z,9.50
2023-04-20T21:46:16.136Z,10.27
2023-04-20T21:48:44.576Z,10.13
2023-04-20T21:51:16.250Z,10.37
2023-04-20T21:53:46.368Z,13.23
2023-04-20T21:56:15.658Z,13.00
2023-04-20T21:58:44.059Z,10.13
2023-04-20T22:01:12.450Z,9.77
2023-04-20T22:03:41.285Z,13.93
2023-04-20T22:06:09.859Z,10.97
2023-04-20T22:08:41.257Z,9.73
2023-04-20T22:11:11.011Z,9.47
2023-04-20T22:13:39.429Z,10.57
2023-04-20T22:16:08.634Z,10.20
2023-04-20T22:18:37.095Z,9.70
2023-04-20T22:21:05.580Z,10.93
2023-04-20T22:23:33.896Z,9.43
2023-04-20T22:26:02.441Z,11.37
2023-04-20T22:28:32.152Z,10.50
2023-04-20T22:31:01.117Z,10.00
2023-04-20T22:33:30.713Z,10.90
2023-04-20T22:35:59.372Z,10.27
2023-04-20T22:38:28.631Z,11.53
2023-04-20T22:40:57.413Z,10.73
2023-04-20T22:43:26.262Z,10.83
2023-04-20T22:45:55.966Z,10.10
2023-04-20T22:48:24.398Z,10.83
2023-04-20T22:50:53.649Z,11.57
2023-04-20T22:53:22.313Z,13.60
2023-04-20T22:55:50.827Z,12.53
2023-04-20T22:58:19.353Z,10.57
2023-04-20T23:00:50.944Z,12.40
2023-04-20T23:03:21.092Z,12.30
2023-04-20T23:05:49.850Z,12.90
2023-04-20T23:08:20.686Z,12.73
2023-04-20T23:10:49.189Z,13.10
2023-04-20T23:13:18.346Z,13.43
2023-04-20T23:15:46.786Z,15.80
2023-04-20T23:18:15.161Z,13.67
2023-04-20T23:20:48.309Z,15.90
2023-04-20T23:23:17.002Z,15.77
2023-04-20T23:25:45.676Z,15.70
2023-04-20T23:28:14.110Z,15.57
2023-04-20T23:30:42.626Z,15.53
2023-04-20T23:33:11.190Z,14.63
2023-04-20T23:35:39.689Z,16.87
2023-04-20T23:38:09.510Z,18.13
2023-04-20T23:40:37.840Z,14.97
2023-04-20T23:43:06.406Z,18.33
2023-04-20T23:45:34.842Z,15.73
2023-04-20T23:48:03.317Z,17.27
2023-04-20T23:50:31.872Z,18.03
2023-04-20T23:53:01.129Z,18.77
2023-04-20T23:55:30.990Z,18.00
2023-04-20T23:57:59.476Z,18.60
